Time;durP1;ratioP1;P1;durP2;ratioP2;P2;SDS_P1;SDS_P2;PMS_P1;PMS_P2;Temp;Humidity;BMP_temperature;BMP_pressure;BME280_temperature;BME280_humidity;BME280_pressure;Samples;Min_cycle;Max_cycle;Signal;HPM_P1;HPM_P2
2021/08/06 05:53:28;;;;;;;5.10;2.97;;;;;;;;;;10503799;27;20754;-85
2021/08/06 05:58:29;;;;;;;2.67;2.10;;;;;;;;;;10500493;28;20478;-85
2021/08/06 06:03:30;;;;;;;3.17;2.30;;;;;;;;;;10494116;28;20074;-83
2021/08/06 06:08:32;;;;;;;;;;;;;;;;;;10493068;28;20471;-84
2021/08/06 06:13:32;;;;;;;3.30;2.38;;;;;;;;;;10494033;28;19967;-83
2021/08/06 06:18:34;;;;;;;4.55;2.80;;;;;;;;;;10493976;28;20102;-85
2021/08/06 06:23:34;;;;;;;3.10;2.35;;;;;;;;;;10494409;28;20028;-83
2021/08/06 06:28:35;;;;;;;3.33;2.10;;;;;;;;;;10493766;28;20389;-83
2021/08/06 06:33:37;;;;;;;2.72;1.98;;;;;;;;;;10494740;28;20052;-85
2021/08/06 06:38:37;;;;;;;3.83;2.42;;;;;;;;;;10502891;28;20459;-84
2021/08/06 06:43:38;;;;;;;4.28;2.35;;;;;;;;;;10506396;28;20044;-84
2021/08/06 06:48:39;;;;;;;3.33;2.20;;;;;;;;;;10497465;28;20033;-84
2021/08/06 06:53:40;;;;;;;3.90;2.28;;;;;;;;;;10495532;28;20062;-84
2021/08/06 06:58:41;;;;;;;4.70;3.28;;;;;;;;;;10495557;28;20036;-84
2021/08/06 07:03:42;;;;;;;2.10;1.75;;;;;;;;;;10476356;28;20024;-83
2021/08/06 07:08:49;;;;;;;3.22;2.08;;;;;;;;;;10470827;28;20032;-85
2021/08/06 07:13:57;;;;;;;3.13;1.88;;;;;;;;;;10471647;28;20557;-84
2021/08/06 07:19:06;;;;;;;2.00;1.70;;;;;;;;;;10472094;28;20053;-84
2021/08/06 07:24:07;;;;;;;2.78;2.05;;;;;;;;;;10466064;28;20048;-82
2021/08/06 07:29:08;;;;;;;3.95;1.92;;;;;;;;;;10467779;28;20033;-84
2021/08/06 07:34:10;;;;;;;3.17;1.90;;;;;;;;;;10478215;28;20025;-84
2021/08/06 07:39:11;;;;;;;4.03;2.00;;;;;;;;;;10474035;28;20030;-84
2021/08/06 07:44:12;;;;;;;3.47;2.35;;;;;;;;;;10468446;28;20025;-84
2021/08/06 07:49:13;;;;;;;4.68;2.20;;;;;;;;;;10467644;28;20577;-84
2021/08/06 07:54:14;;;;;;;2.53;1.77;;;;;;;;;;10472407;28;20043;-84
2021/08/06 07:59:19;;;;;;;3.30;1.70;;;;;;;;;;10472116;28;20079;-84
2021/08/06 08:04:19;;;;;;;3.25;2.08;;;;;;;;;;10476140;28;20024;-85
2021/08/06 08:09:20;;;;;;;3.85;2.05;;;;;;;;;;10476634;28;20031;-85
2021/08/06 08:14:21;;;;;;;4.70;1.70;;;;;;;;;;10472118;28;20032;-84
2021/08/06 08:19:23;;;;;;;2.33;1.77;;;;;;;;;;10467809;28;20025;-84
2021/08/06 08:24:24;;;;;;;3.08;1.70;;;;;;;;;;10462895;28;20032;-84
2021/08/06 08:29:25;;;;;;;15.43;12.05;;;;;;;;;;10464587;28;20021;-84
2021/08/06 08:34:26;;;;;;;4.65;3.25;;;;;;;;;;10465836;28;20029;-84
2021/08/06 08:39:26;;;;;;;4.03;2.47;;;;;;;;;;10472843;28;20055;-84
2021/08/06 08:44:39;;;;;;;2.88;2.25;;;;;;;;;;10472294;28;20047;-85
2021/08/06 08:49:40;;;;;;;5.20;2.50;;;;;;;;;;10471693;28;20040;-83
2021/08/06 08:54:41;;;;;;;2.95;2.20;;;;;;;;;;10465658;28;20055;-84
2021/08/06 08:59:41;;;;;;;6.13;2.60;;;;;;;;;;10462019;28;20063;-84
2021/08/06 09:04:48;;;;;;;4.75;2.90;;;;;;;;;;10468436;28;20029;-83
2021/08/06 09:10:04;;;;;;;6.35;2.70;;;;;;;;;;10483939;28;20522;-84
2021/08/06 09:15:05;;;;;;;5.85;3.10;;;;;;;;;;10462992;28;20028;-84
2021/08/06 09:20:12;;;;;;;4.75;3.13;;;;;;;;;;10464705;28;20021;-84
2021/08/06 09:25:15;;;;;;;4.72;3.15;;;;;;;;;;10458242;22;20041;-83
2021/08/06 10:44:47;;;;;;;5.45;3.65;;;;;;;;;;10537044;28;20271;-87
2021/08/06 11:07:13;;;;;;;7.05;3.75;;;;;;;;;;10549465;28;20263;-87
2021/08/06 11:12:40;;;;;;;5.25;3.65;;;;;;;;;;10542575;28;20247;-86
2021/08/06 11:23:35;;;;;;;5.15;3.30;;;;;;;;;;10549644;28;20514;-85
2021/08/06 11:46:29;;;;;;;3.10;2.03;;;;;;;;;;10528737;28;20036;-87
2021/08/06 12:08:35;;;;;;;3.17;1.90;;;;;;;;;;10525041;28;20462;-87
2021/08/06 12:13:37;;;;;;;3.72;1.73;;;;;;;;;;10500224;28;20043;-89
2021/08/06 12:18:39;;;;;;;4.57;1.80;;;;;;;;;;10494271;28;20046;-89
2021/08/06 12:23:43;;;;;;;3.53;1.95;;;;;;;;;;10498755;28;20036;-88
2021/08/06 12:28:46;;;;;;;4.45;1.98;;;;;;;;;;10515362;28;20036;-87
2021/08/06 12:34:02;;;;;;;4.00;1.70;;;;;;;;;;10512596;28;20048;-86
2021/08/06 12:39:07;;;;;;;3.78;1.90;;;;;;;;;;10506120;28;20028;-86
2021/08/06 12:44:50;;;;;;;3.45;1.85;;;;;;;;;;10504390;28;20044;-86
2021/08/06 12:49:55;;;;;;;2.97;2.05;;;;;;;;;;10384704;28;20033;-85
2021/08/06 12:54:59;;;;;;;2.60;1.83;;;;;;;;;;10376988;28;20038;-86
2021/08/06 13:00:20;;;;;;;5.20;2.30;;;;;;;;;;10470094;28;20037;-85
2021/08/06 13:05:27;;;;;;;4.65;2.30;;;;;;;;;;10507568;28;20017;-85
2021/08/06 13:16:15;;;;;;;3.58;2.00;;;;;;;;;;10392991;28;20025;-87
2021/08/06 13:21:32;;;;;;;4.05;2.28;;;;;;;;;;10482560;28;20044;-88
2021/08/06 13:27:04;;;;;;;5.90;2.47;;;;;;;;;;10627247;23;20055;-85
2021/08/06 15:25:55;;;;;;;2.67;1.80;;;;;;;;;;10458299;28;20033;-88
2021/08/06 15:42:48;;;;;;;2.35;1.50;;;;;;;;;;10349562;28;20045;-85
2021/08/06 15:53:51;;;;;;;3.13;1.42;;;;;;;;;;10426824;28;20503;-86
2021/08/06 15:58:52;;;;;;;1.98;1.30;;;;;;;;;;10430733;28;20034;-87
2021/08/06 16:03:53;;;;;;;2.70;1.42;;;;;;;;;;10448478;28;20056;-87
2021/08/06 16:08:54;;;;;;;1.80;1.30;;;;;;;;;;10442195;28;20041;-88
2021/08/06 16:13:55;;;;;;;2.88;1.50;;;;;;;;;;10426610;28;20033;-87
2021/08/06 16:18:59;;;;;;;2.28;1.60;;;;;;;;;;10427169;28;20124;-89
2021/08/06 16:24:00;;;;;;;3.92;1.80;;;;;;;;;;10426028;28;20033;-88
2021/08/06 16:35:23;;;;;;;;;;;;;;;;;;;;;
2021/08/06 16:40:49;;;;;;;2.37;1.20;;;;;;;;;;10408752;28;20037;-87
2021/08/06 16:46:07;;;;;;;2.70;1.23;;;;;;;;;;10373044;28;20025;-85
2021/08/06 16:51:09;;;;;;;2.42;1.27;;;;;;;;;;10430611;28;20033;-87
2021/08/06 16:56:10;;;;;;;4.03;1.17;;;;;;;;;;10446932;28;20041;-87
2021/08/06 17:01:11;;;;;;;1.83;0.90;;;;;;;;;;10428515;28;20091;-86
2021/08/06 17:06:12;;;;;;;2.05;1.02;;;;;;;;;;10423158;28;20030;-86
2021/08/06 17:11:14;;;;;;;2.15;1.05;;;;;;;;;;10423811;28;20034;-86
2021/08/06 17:16:20;;;;;;;3.08;1.20;;;;;;;;;;10424827;28;20053;-86
2021/08/06 17:21:22;;;;;;;2.95;1.05;;;;;;;;;;10422759;28;20033;-87
2021/08/06 17:26:23;;;;;;;2.00;1.15;;;;;;;;;;10424148;28;20037;-87
2021/08/06 17:31:24;;;;;;;1.58;1.10;;;;;;;;;;10438664;28;20029;-87
2021/08/06 17:36:25;;;;;;;2.28;1.25;;;;;;;;;;10446707;28;20499;-86
2021/08/06 17:41:27;;;;;;;3.70;1.27;;;;;;;;;;10434730;28;20041;-86
2021/08/06 17:46:28;;;;;;;4.15;1.35;;;;;;;;;;10437486;28;20061;-88
2021/08/06 17:51:29;;;;;;;3.60;1.40;;;;;;;;;;10425349;28;20042;-88
2021/08/06 17:56:31;;;;;;;2.15;1.40;;;;;;;;;;10420717;28;20491;-89
2021/08/06 18:01:33;;;;;;;3.45;1.52;;;;;;;;;;10437340;28;20701;-87
2021/08/06 18:06:34;;;;;;;3.97;1.67;;;;;;;;;;10462433;28;20053;-86
2021/08/06 18:11:35;;;;;;;2.13;1.45;;;;;;;;;;10444133;28;20045;-87
2021/08/06 18:16:36;;;;;;;2.97;1.67;;;;;;;;;;10435093;28;20018;-87
2021/08/06 18:21:37;;;;;;;3.75;1.88;;;;;;;;;;10436110;28;20049;-88
2021/08/06 18:26:38;;;;;;;3.63;1.80;;;;;;;;;;10451866;28;20029;-86
2021/08/06 18:31:39;;;;;;;4.20;2.08;;;;;;;;;;10424899;28;20033;-89
2021/08/06 18:36:40;;;;;;;3.35;1.50;;;;;;;;;;10433197;28;20030;-87
2021/08/06 18:41:42;;;;;;;2.80;1.63;;;;;;;;;;10436332;28;20040;-86
2021/08/06 18:46:43;;;;;;;2.70;1.50;;;;;;;;;;10431331;28;20034;-87
2021/08/06 18:51:44;;;;;;;2.90;1.35;;;;;;;;;;10429413;28;20045;-87
2021/08/06 18:56:45;;;;;;;2.75;1.42;;;;;;;;;;10428047;28;20093;-86
2021/08/06 19:01:46;;;;;;;2.22;1.35;;;;;;;;;;10437132;28;20113;-88
2021/08/06 19:06:47;;;;;;;2.03;1.27;;;;;;;;;;10444382;28;20037;-87
2021/08/06 19:11:48;;;;;;;1.10;1.00;;;;;;;;;;10428284;28;20109;-87
2021/08/06 19:16:49;;;;;;;1.92;1.10;;;;;;;;;;10440451;28;20076;-86
2021/08/06 19:21:50;;;;;;;2.00;1.30;;;;;;;;;;10429087;28;20034;-89
2021/08/06 19:26:51;;;;;;;2.13;1.13;;;;;;;;;;10428284;28;20029;-87
2021/08/06 19:31:52;;;;;;;3.30;1.40;;;;;;;;;;10437474;28;20037;-87
2021/08/06 19:36:56;;;;;;;3.13;1.45;;;;;;;;;;10448580;28;20060;-87
2021/08/06 19:41:58;;;;;;;2.78;1.40;;;;;;;;;;10435468;28;20100;-87
2021/08/06 19:46:59;;;;;;;2.63;1.40;;;;;;;;;;10435151;28;20061;-87
2021/08/06 19:52:01;;;;;;;2.72;1.48;;;;;;;;;;10427527;28;20037;-88
2021/08/06 19:57:02;;;;;;;2.83;1.48;;;;;;;;;;10437346;28;20049;-87
2021/08/06 20:02:03;;;;;;;3.08;1.20;;;;;;;;;;10429825;28;20034;-86
2021/08/06 20:07:04;;;;;;;2.35;1.50;;;;;;;;;;10432757;28;20026;-88
2021/08/06 20:12:06;;;;;;;3.65;1.75;;;;;;;;;;10462336;28;20041;-87
2021/08/06 20:17:07;;;;;;;3.50;1.95;;;;;;;;;;10423866;28;20041;-86
2021/08/06 20:22:08;;;;;;;2.13;1.38;;;;;;;;;;10425521;28;20037;-86
2021/08/06 20:27:09;;;;;;;2.40;1.73;;;;;;;;;;10441910;28;20061;-87
2021/08/06 20:32:10;;;;;;;2.08;1.25;;;;;;;;;;10438355;28;20046;-86
2021/08/06 20:37:10;;;;;;;3.08;1.52;;;;;;;;;;10433085;28;20499;-86
2021/08/06 20:42:11;;;;;;;2.47;1.40;;;;;;;;;;10437411;28;20106;-88
2021/08/06 20:47:12;;;;;;;2.50;1.50;;;;;;;;;;10444359;28;20575;-87
2021/08/06 20:52:13;;;;;;;3.00;2.03;;;;;;;;;;10426280;28;20038;-86
2021/08/06 20:57:14;;;;;;;3.00;1.70;;;;;;;;;;10423064;28;20045;-86
2021/08/06 21:02:15;;;;;;;3.55;1.60;;;;;;;;;;10452509;28;20060;-88
2021/08/06 21:07:16;;;;;;;2.33;1.60;;;;;;;;;;10436224;28;20546;-86
2021/08/06 21:12:17;;;;;;;2.22;1.20;;;;;;;;;;10433561;28;20072;-86
2021/08/06 21:17:18;;;;;;;2.03;1.23;;;;;;;;;;10423112;28;20044;-86
2021/08/06 21:22:19;;;;;;;3.35;1.85;;;;;;;;;;10419945;28;20091;-85
2021/08/06 21:33:11;;;;;;;1.85;1.38;;;;;;;;;;10341523;28;20031;-86
2021/08/06 21:38:12;;;;;;;3.40;1.55;;;;;;;;;;10506402;28;20027;-85
2021/08/06 21:43:14;;;;;;;3.80;1.70;;;;;;;;;;10490134;28;20032;-85
2021/08/06 21:48:24;;;;;;;3.50;1.15;;;;;;;;;;10481885;28;20143;-88
2021/08/06 21:53:37;;;;;;;1.95;1.50;;;;;;;;;;10463955;28;20037;-87
2021/08/06 21:58:40;;;;;;;2.97;1.40;;;;;;;;;;10446977;28;20505;-87
2021/08/06 22:03:45;;;;;;;2.95;1.77;;;;;;;;;;10431235;28;20041;-87
2021/08/06 22:09:11;;;;;;;2.67;1.50;;;;;;;;;;10447459;28;20052;-87
2021/08/06 22:14:44;;;;;;;2.55;1.52;;;;;;;;;;10449075;28;20037;-87
2021/08/06 22:19:45;;;;;;;1.77;1.20;;;;;;;;;;10445964;28;20491;-88
2021/08/06 22:25:13;;;;;;;1.90;1.30;;;;;;;;;;10463916;28;20037;-87
2021/08/06 22:30:16;;;;;;;1.85;1.30;;;;;;;;;;10463764;28;20068;-88
2021/08/06 22:35:19;;;;;;;2.75;1.08;;;;;;;;;;10467686;28;20086;-88
2021/08/06 22:40:20;;;;;;;2.92;1.20;;;;;;;;;;10436056;28;20447;-87
2021/08/06 22:45:23;;;;;;;2.42;1.27;;;;;;;;;;10450576;28;20098;-88
2021/08/06 22:50:57;;;;;;;2.15;1.20;;;;;;;;;;10461793;28;20507;-88
2021/08/06 23:13:17;;;;;;;2.20;1.20;;;;;;;;;;10413747;28;20487;-88
2021/08/06 23:24:13;;;;;;;1.75;1.13;;;;;;;;;;10381642;28;20049;-88
2021/08/06 23:29:14;;;;;;;1.50;0.90;;;;;;;;;;10364310;28;20133;-88
2021/08/06 23:45:32;;;;;;;1.55;1.00;;;;;;;;;;10440112;28;20025;-88
2021/08/06 23:50:33;;;;;;;1.67;0.82;;;;;;;;;;10475891;28;20036;-89
2021/08/06 23:55:34;;;;;;;2.42;1.05;;;;;;;;;;10447659;28;20041;-89
